sensor_id;sensor_type;location;lat;lon;timestamp;temperature;humidity
76444;DHT22;65282;51.362;10.082;2022-12-08T00:02:19;3.00;90.30
76444;DHT22;65282;51.362;10.082;2022-12-08T00:04:48;2.90;90.60
76444;DHT22;65282;51.362;10.082;2022-12-08T00:07:15;3.00;90.30
76444;DHT22;65282;51.362;10.082;2022-12-08T00:09:42;3.00;90.60
76444;DHT22;65282;51.362;10.082;2022-12-08T00:12:10;2.90;90.50
76444;DHT22;65282;51.362;10.082;2022-12-08T00:14:39;3.90;90.50
76444;DHT22;65282;51.362;10.082;2022-12-08T00:17:08;3.00;90.50
76444;DHT22;65282;51.362;10.082;2022-12-08T00:19:35;3.00;90.50
76444;DHT22;65282;51.362;10.082;2022-12-08T00:22:05;3.00;90.30
76444;DHT22;65282;51.362;10.082;2022-12-08T00:24:33;3.00;90.70
76444;DHT22;65282;51.362;10.082;2022-12-08T00:27:01;3.00;90.40
76444;DHT22;65282;51.362;10.082;2022-12-08T00:29:28;2.90;90.50
76444;DHT22;65282;51.362;10.082;2022-12-08T00:31:54;4.70;91.00
76444;DHT22;65282;51.362;10.082;2022-12-08T00:34:22;3.00;90.40
76444;DHT22;65282;51.362;10.082;2022-12-08T00:36:48;3.00;90.50
76444;DHT22;65282;51.362;10.082;2022-12-08T00:39:17;3.00;90.60
76444;DHT22;65282;51.362;10.082;2022-12-08T00:41:44;3.00;90.40
76444;DHT22;65282;51.362;10.082;2022-12-08T00:44:13;3.00;90.70
76444;DHT22;65282;51.362;10.082;2022-12-08T00:46:40;2.90;90.60
76444;DHT22;65282;51.362;10.082;2022-12-08T00:49:08;2.90;91.00
76444;DHT22;65282;51.362;10.082;2022-12-08T00:51:35;3.00;90.60
76444;DHT22;65282;51.362;10.082;2022-12-08T00:54:02;2.90;90.90
76444;DHT22;65282;51.362;10.082;2022-12-08T00:56:31;2.90;90.90
76444;DHT22;65282;51.362;10.082;2022-12-08T00:58:58;2.90;90.80
76444;DHT22;65282;51.362;10.082;2022-12-08T01:01:26;2.90;90.80
76444;DHT22;65282;51.362;10.082;2022-12-08T01:03:53;2.90;91.10
76444;DHT22;65282;51.362;10.082;2022-12-08T01:06:20;2.90;91.10
76444;DHT22;65282;51.362;10.082;2022-12-08T01:08:47;2.90;91.00
76444;DHT22;65282;51.362;10.082;2022-12-08T01:11:18;2.80;91.00
76444;DHT22;65282;51.362;10.082;2022-12-08T01:13:46;2.70;91.10
76444;DHT22;65282;51.362;10.082;2022-12-08T01:16:20;2.70;91.30
76444;DHT22;65282;51.362;10.082;2022-12-08T01:18:48;2.70;91.30
76444;DHT22;65282;51.362;10.082;2022-12-08T01:21:16;2.70;91.00
76444;DHT22;65282;51.362;10.082;2022-12-08T01:23:43;3.50;91.30
76444;DHT22;65282;51.362;10.082;2022-12-08T01:26:13;2.70;91.10
76444;DHT22;65282;51.362;10.082;2022-12-08T01:28:41;2.70;91.10
76444;DHT22;65282;51.362;10.082;2022-12-08T01:31:12;2.80;90.80
76444;DHT22;65282;51.362;10.082;2022-12-08T01:33:39;2.80;90.90
76444;DHT22;65282;51.362;10.082;2022-12-08T01:36:08;2.80;90.90
76444;DHT22;65282;51.362;10.082;2022-12-08T01:38:35;2.80;90.90
76444;DHT22;65282;51.362;10.082;2022-12-08T01:41:02;2.80;90.90
76444;DHT22;65282;51.362;10.082;2022-12-08T01:43:57;2.80;90.70
76444;DHT22;65282;51.362;10.082;2022-12-08T01:46:27;2.80;90.60
76444;DHT22;65282;51.362;10.082;2022-12-08T01:49:00;2.90;91.00
76444;DHT22;65282;51.362;10.082;2022-12-08T01:51:30;2.90;90.70
76444;DHT22;65282;51.362;10.082;2022-12-08T01:53:58;2.80;90.60
76444;DHT22;65282;51.362;10.082;2022-12-08T01:56:28;2.90;90.70
76444;DHT22;65282;51.362;10.082;2022-12-08T01:58:58;2.90;90.50
76444;DHT22;65282;51.362;10.082;2022-12-08T02:01:26;2.90;90.50
76444;DHT22;65282;51.362;10.082;2022-12-08T02:03:56;2.90;90.40
76444;DHT22;65282;51.362;10.082;2022-12-08T02:06:25;2.80;90.50
76444;DHT22;65282;51.362;10.082;2022-12-08T02:08:52;2.80;90.50
76444;DHT22;65282;51.362;10.082;2022-12-08T02:11:20;2.80;90.60
76444;DHT22;65282;51.362;10.082;2022-12-08T02:13:48;2.70;90.70
76444;DHT22;65282;51.362;10.082;2022-12-08T02:16:28;2.70;90.70
76444;DHT22;65282;51.362;10.082;2022-12-08T02:19:07;2.70;90.80
76444;DHT22;65282;51.362;10.082;2022-12-08T02:22:02;2.60;90.70
76444;DHT22;65282;51.362;10.082;2022-12-08T02:24:35;2.50;90.80
76444;DHT22;65282;51.362;10.082;2022-12-08T02:27:22;2.50;90.80
76444;DHT22;65282;51.362;10.082;2022-12-08T02:30:17;2.60;90.80
76444;DHT22;65282;51.362;10.082;2022-12-08T02:33:08;2.60;90.10
76444;DHT22;65282;51.362;10.082;2022-12-08T02:35:46;2.60;90.10
76444;DHT22;65282;51.362;10.082;2022-12-08T02:38:30;2.60;90.20
76444;DHT22;65282;51.362;10.082;2022-12-08T02:41:09;2.60;90.20
76444;DHT22;65282;51.362;10.082;2022-12-08T02:43:41;2.50;90.40
76444;DHT22;65282;51.362;10.082;2022-12-08T02:46:13;2.60;90.20
76444;DHT22;65282;51.362;10.082;2022-12-08T02:48:41;2.50;90.50
76444;DHT22;65282;51.362;10.082;2022-12-08T02:51:10;2.50;90.80
76444;DHT22;65282;51.362;10.082;2022-12-08T02:53:37;2.50;90.90
76444;DHT22;65282;51.362;10.082;2022-12-08T02:56:14;2.40;90.80
76444;DHT22;65282;51.362;10.082;2022-12-08T02:58:57;2.30;90.90
76444;DHT22;65282;51.362;10.082;2022-12-08T03:01:43;2.30;91.00
76444;DHT22;65282;51.362;10.082;2022-12-08T03:04:42;2.20;91.20
76444;DHT22;65282;51.362;10.082;2022-12-08T03:07:18;2.20;91.40
76444;DHT22;65282;51.362;10.082;2022-12-08T03:09:51;2.20;91.40
76444;DHT22;65282;51.362;10.082;2022-12-08T03:12:24;2.30;91.30
76444;DHT22;65282;51.362;10.082;2022-12-08T03:14:54;2.30;91.00
76444;DHT22;65282;51.362;10.082;2022-12-08T03:17:25;2.40;91.10
76444;DHT22;65282;51.362;10.082;2022-12-08T03:19:53;4.30;91.00
76444;DHT22;65282;51.362;10.082;2022-12-08T03:22:24;2.50;90.20
76444;DHT22;65282;51.362;10.082;2022-12-08T03:24:53;2.60;90.30
76444;DHT22;65282;51.362;10.082;2022-12-08T03:27:22;2.60;90.30
76444;DHT22;65282;51.362;10.082;2022-12-08T03:29:52;4.00;90.50
76444;DHT22;65282;51.362;10.082;2022-12-08T03:32:22;2.70;90.30
76444;DHT22;65282;51.362;10.082;2022-12-08T03:34:52;2.70;90.40
76444;DHT22;65282;51.362;10.082;2022-12-08T03:37:20;2.70;90.20
76444;DHT22;65282;51.362;10.082;2022-12-08T03:39:48;2.70;90.20
76444;DHT22;65282;51.362;10.082;2022-12-08T03:42:15;2.80;90.20
76444;DHT22;65282;51.362;10.082;2022-12-08T03:44:42;2.80;90.30
76444;DHT22;65282;51.362;10.082;2022-12-08T03:47:09;2.80;90.20
76444;DHT22;65282;51.362;10.082;2022-12-08T03:49:35;2.80;90.10
76444;DHT22;65282;51.362;10.082;2022-12-08T03:52:02;2.80;90.10
76444;DHT22;65282;51.362;10.082;2022-12-08T03:54:29;2.80;90.20
76444;DHT22;65282;51.362;10.082;2022-12-08T03:56:57;4.50;90.60
76444;DHT22;65282;51.362;10.082;2022-12-08T03:59:24;2.90;90.20
76444;DHT22;65282;51.362;10.082;2022-12-08T04:01:51;2.80;90.10
76444;DHT22;65282;51.362;10.082;2022-12-08T04:04:18;2.80;90.10
76444;DHT22;65282;51.362;10.082;2022-12-08T04:06:45;2.80;90.10
76444;DHT22;65282;51.362;10.082;2022-12-08T04:09:12;4.70;90.60
76444;DHT22;65282;51.362;10.082;2022-12-08T04:11:39;2.90;90.10
76444;DHT22;65282;51.362;10.082;2022-12-08T04:14:07;2.90;90.10
76444;DHT22;65282;51.362;10.082;2022-12-08T04:16:34;2.90;90.40
76444;DHT22;65282;51.362;10.082;2022-12-08T04:19:01;2.80;90.20
76444;DHT22;65282;51.362;10.082;2022-12-08T04:21:28;2.80;90.20
76444;DHT22;65282;51.362;10.082;2022-12-08T04:23:55;2.80;90.10
76444;DHT22;65282;51.362;10.082;2022-12-08T04:26:27;2.90;90.20
76444;DHT22;65282;51.362;10.082;2022-12-08T04:28:54;2.80;90.10
76444;DHT22;65282;51.362;10.082;2022-12-08T04:31:22;2.90;93.90
76444;DHT22;65282;51.362;10.082;2022-12-08T04:33:49;2.80;90.00
76444;DHT22;65282;51.362;10.082;2022-12-08T04:36:16;2.90;89.90
76444;DHT22;65282;51.362;10.082;2022-12-08T04:38:43;2.90;89.50
76444;DHT22;65282;51.362;10.082;2022-12-08T04:41:10;2.90;89.40
76444;DHT22;65282;51.362;10.082;2022-12-08T04:43:37;2.90;89.50
76444;DHT22;65282;51.362;10.082;2022-12-08T04:46:05;2.90;89.40
76444;DHT22;65282;51.362;10.082;2022-12-08T04:48:36;2.90;89.40
76444;DHT22;65282;51.362;10.082;2022-12-08T04:51:03;2.90;89.50
76444;DHT22;65282;51.362;10.082;2022-12-08T04:53:30;2.90;89.10
76444;DHT22;65282;51.362;10.082;2022-12-08T04:55:57;3.00;88.90
76444;DHT22;65282;51.362;10.082;2022-12-08T04:58:24;2.90;89.00
76444;DHT22;65282;51.362;10.082;2022-12-08T05:00:51;3.00;89.10
76444;DHT22;65282;51.362;10.082;2022-12-08T05:03:18;3.00;89.20
76444;DHT22;65282;51.362;10.082;2022-12-08T05:05:55;3.00;89.00
76444;DHT22;65282;51.362;10.082;2022-12-08T05:08:25;3.00;88.90
76444;DHT22;65282;51.362;10.082;2022-12-08T05:10:52;3.00;88.90
76444;DHT22;65282;51.362;10.082;2022-12-08T05:13:19;3.00;89.20
76444;DHT22;65282;51.362;10.082;2022-12-08T05:15:46;3.00;89.20
76444;DHT22;65282;51.362;10.082;2022-12-08T05:18:12;3.00;89.20
76444;DHT22;65282;51.362;10.082;2022-12-08T05:20:39;3.00;89.10
76444;DHT22;65282;51.362;10.082;2022-12-08T05:23:07;2.90;89.90
76444;DHT22;65282;51.362;10.082;2022-12-08T05:25:34;3.00;89.30
76444;DHT22;65282;51.362;10.082;2022-12-08T05:28:01;2.90;88.90
76444;DHT22;65282;51.362;10.082;2022-12-08T05:30:48;2.90;89.60
76444;DHT22;65282;51.362;10.082;2022-12-08T05:33:15;2.90;89.30
76444;DHT22;65282;51.362;10.082;2022-12-08T05:35:42;3.00;89.30
76444;DHT22;65282;51.362;10.082;2022-12-08T05:38:10;2.90;89.10
76444;DHT22;65282;51.362;10.082;2022-12-08T05:40:37;2.90;89.00
76444;DHT22;65282;51.362;10.082;2022-12-08T05:43:04;2.90;89.00
76444;DHT22;65282;51.362;10.082;2022-12-08T05:45:31;2.80;88.90
76444;DHT22;65282;51.362;10.082;2022-12-08T05:47:58;3.00;88.80
76444;DHT22;65282;51.362;10.082;2022-12-08T05:50:25;3.00;88.80
76444;DHT22;65282;51.362;10.082;2022-12-08T05:52:54;3.80;89.60
76444;DHT22;65282;51.362;10.082;2022-12-08T05:55:22;3.00;89.00
76444;DHT22;65282;51.362;10.082;2022-12-08T05:57:49;3.00;89.10
76444;DHT22;65282;51.362;10.082;2022-12-08T06:00:16;3.00;88.50
76444;DHT22;65282;51.362;10.082;2022-12-08T06:02:43;3.00;88.50
76444;DHT22;65282;51.362;10.082;2022-12-08T06:05:11;3.00;88.50
76444;DHT22;65282;51.362;10.082;2022-12-08T06:07:38;4.70;89.70
76444;DHT22;65282;51.362;10.082;2022-12-08T06:10:06;3.10;88.60
76444;DHT22;65282;51.362;10.082;2022-12-08T06:12:34;3.10;89.30
76444;DHT22;65282;51.362;10.082;2022-12-08T06:15:01;3.10;88.50
76444;DHT22;65282;51.362;10.082;2022-12-08T06:17:28;3.50;88.70
76444;DHT22;65282;51.362;10.082;2022-12-08T06:19:55;3.10;88.90
76444;DHT22;65282;51.362;10.082;2022-12-08T06:22:22;3.00;88.60
76444;DHT22;65282;51.362;10.082;2022-12-08T06:24:49;3.10;88.70
76444;DHT22;65282;51.362;10.082;2022-12-08T06:27:16;3.00;88.60
76444;DHT22;65282;51.362;10.082;2022-12-08T06:29:44;3.00;88.60
76444;DHT22;65282;51.362;10.082;2022-12-08T06:32:11;3.00;88.90
76444;DHT22;65282;51.362;10.082;2022-12-08T06:34:38;2.90;89.10
76444;DHT22;65282;51.362;10.082;2022-12-08T06:37:05;2.90;89.00
76444;DHT22;65282;51.362;10.082;2022-12-08T06:39:31;2.90;89.20
76444;DHT22;65282;51.362;10.082;2022-12-08T06:41:58;2.90;89.30
76444;DHT22;65282;51.362;10.082;2022-12-08T06:44:25;2.90;89.30
76444;DHT22;65282;51.362;10.082;2022-12-08T06:46:53;2.80;89.10
76444;DHT22;65282;51.362;10.082;2022-12-08T06:49:20;2.90;89.10
76444;DHT22;65282;51.362;10.082;2022-12-08T06:51:47;2.90;89.10
76444;DHT22;65282;51.362;10.082;2022-12-08T06:54:14;2.90;88.80
76444;DHT22;65282;51.362;10.082;2022-12-08T06:56:41;2.90;89.10
76444;DHT22;65282;51.362;10.082;2022-12-08T06:59:08;2.90;88.80
76444;DHT22;65282;51.362;10.082;2022-12-08T07:01:35;3.00;88.90
76444;DHT22;65282;51.362;10.082;2022-12-08T07:04:03;3.00;88.80
76444;DHT22;65282;51.362;10.082;2022-12-08T07:06:30;3.00;89.00
76444;DHT22;65282;51.362;10.082;2022-12-08T07:08:57;3.00;88.80
76444;DHT22;65282;51.362;10.082;2022-12-08T07:11:24;3.00;88.80
76444;DHT22;65282;51.362;10.082;2022-12-08T07:13:51;3.00;89.00
76444;DHT22;65282;51.362;10.082;2022-12-08T07:16:18;3.00;88.50
76444;DHT22;65282;51.362;10.082;2022-12-08T07:18:45;3.10;88.70
76444;DHT22;65282;51.362;10.082;2022-12-08T07:21:14;3.10;89.10
76444;DHT22;65282;51.362;10.082;2022-12-08T07:23:41;3.10;89.00
76444;DHT22;65282;51.362;10.082;2022-12-08T07:26:10;3.10;88.80
76444;DHT22;65282;51.362;10.082;2022-12-08T07:28:39;3.20;88.80
76444;DHT22;65282;51.362;10.082;2022-12-08T07:31:07;3.20;88.90
76444;DHT22;65282;51.362;10.082;2022-12-08T07:33:41;3.20;88.90
76444;DHT22;65282;51.362;10.082;2022-12-08T07:36:08;3.20;88.90
76444;DHT22;65282;51.362;10.082;2022-12-08T07:38:36;3.20;88.50
76444;DHT22;65282;51.362;10.082;2022-12-08T07:41:03;3.20;89.30
76444;DHT22;65282;51.362;10.082;2022-12-08T07:43:30;3.20;88.90
76444;DHT22;65282;51.362;10.082;2022-12-08T07:45:57;3.20;89.40
76444;DHT22;65282;51.362;10.082;2022-12-08T07:48:24;3.20;88.50
76444;DHT22;65282;51.362;10.082;2022-12-08T07:50:59;3.30;88.30
76444;DHT22;65282;51.362;10.082;2022-12-08T07:53:25;3.30;88.50
76444;DHT22;65282;51.362;10.082;2022-12-08T07:55:54;3.30;88.70
76444;DHT22;65282;51.362;10.082;2022-12-08T07:58:21;3.30;88.40
76444;DHT22;65282;51.362;10.082;2022-12-08T08:00:48;3.30;88.70
76444;DHT22;65282;51.362;10.082;2022-12-08T08:03:14;4.60;89.50
76444;DHT22;65282;51.362;10.082;2022-12-08T08:05:42;3.40;89.00
76444;DHT22;65282;51.362;10.082;2022-12-08T08:08:08;3.40;88.70
76444;DHT22;65282;51.362;10.082;2022-12-08T08:10:35;3.40;88.10
76444;DHT22;65282;51.362;10.082;2022-12-08T08:13:04;3.40;88.40
76444;DHT22;65282;51.362;10.082;2022-12-08T08:15:31;3.40;88.50
76444;DHT22;65282;51.362;10.082;2022-12-08T08:17:58;3.50;88.50
76444;DHT22;65282;51.362;10.082;2022-12-08T08:20:25;3.60;87.70
76444;DHT22;65282;51.362;10.082;2022-12-08T08:22:52;3.50;87.60
76444;DHT22;65282;51.362;10.082;2022-12-08T08:25:19;3.60;88.20
76444;DHT22;65282;51.362;10.082;2022-12-08T08:27:46;3.60;87.50
76444;DHT22;65282;51.362;10.082;2022-12-08T08:30:15;3.60;87.80
76444;DHT22;65282;51.362;10.082;2022-12-08T08:32:47;3.60;88.00
76444;DHT22;65282;51.362;10.082;2022-12-08T08:35:14;3.60;88.10
76444;DHT22;65282;51.362;10.082;2022-12-08T08:37:41;3.60;87.90
76444;DHT22;65282;51.362;10.082;2022-12-08T08:40:14;2.60;87.80
76444;DHT22;65282;51.362;10.082;2022-12-08T08:42:41;3.60;87.30
76444;DHT22;65282;51.362;10.082;2022-12-08T08:45:08;3.70;87.10
76444;DHT22;65282;51.362;10.082;2022-12-08T08:47:37;3.60;87.10
76444;DHT22;65282;51.362;10.082;2022-12-08T08:50:05;3.60;87.60
76444;DHT22;65282;51.362;10.082;2022-12-08T08:52:32;3.60;86.60
76444;DHT22;65282;51.362;10.082;2022-12-08T08:54:59;3.70;87.00
76444;DHT22;65282;51.362;10.082;2022-12-08T08:57:26;3.60;87.50
76444;DHT22;65282;51.362;10.082;2022-12-08T08:59:54;3.60;87.60
76444;DHT22;65282;51.362;10.082;2022-12-08T09:02:21;3.70;87.40
76444;DHT22;65282;51.362;10.082;2022-12-08T09:04:49;5.70;89.30
76444;DHT22;65282;51.362;10.082;2022-12-08T09:07:18;3.70;88.40
76444;DHT22;65282;51.362;10.082;2022-12-08T09:09:45;3.70;88.20
76444;DHT22;65282;51.362;10.082;2022-12-08T09:12:12;3.70;87.60
76444;DHT22;65282;51.362;10.082;2022-12-08T09:14:39;3.70;88.20
76444;DHT22;65282;51.362;10.082;2022-12-08T09:17:06;3.80;88.70
76444;DHT22;65282;51.362;10.082;2022-12-08T09:19:33;3.80;88.50
76444;DHT22;65282;51.362;10.082;2022-12-08T09:22:02;3.80;88.40
76444;DHT22;65282;51.362;10.082;2022-12-08T09:24:28;3.80;88.30
76444;DHT22;65282;51.362;10.082;2022-12-08T09:26:55;3.90;87.60
76444;DHT22;65282;51.362;10.082;2022-12-08T09:29:23;3.90;88.00
76444;DHT22;65282;51.362;10.082;2022-12-08T09:31:50;3.90;88.20
76444;DHT22;65282;51.362;10.082;2022-12-08T09:34:17;3.90;89.00
76444;DHT22;65282;51.362;10.082;2022-12-08T09:36:44;4.00;88.90
76444;DHT22;65282;51.362;10.082;2022-12-08T09:39:12;4.00;88.00
76444;DHT22;65282;51.362;10.082;2022-12-08T09:41:43;4.00;88.50
76444;DHT22;65282;51.362;10.082;2022-12-08T09:47:14;3.90;88.90
76444;DHT22;65282;51.362;10.082;2022-12-08T09:49:49;3.90;88.90
76444;DHT22;65282;51.362;10.082;2022-12-08T09:52:21;3.90;88.50
76444;DHT22;65282;51.362;10.082;2022-12-08T09:54:50;3.90;88.50
76444;DHT22;65282;51.362;10.082;2022-12-08T09:57:20;3.80;89.30
76444;DHT22;65282;51.362;10.082;2022-12-08T09:59:52;4.00;89.50
76444;DHT22;65282;51.362;10.082;2022-12-08T10:02:22;4.00;88.60
76444;DHT22;65282;51.362;10.082;2022-12-08T10:04:49;4.00;89.10
76444;DHT22;65282;51.362;10.082;2022-12-08T10:07:21;5.80;89.60
76444;DHT22;65282;51.362;10.082;2022-12-08T10:09:58;4.10;89.50
76444;DHT22;65282;51.362;10.082;2022-12-08T10:12:30;4.00;89.30
76444;DHT22;65282;51.362;10.082;2022-12-08T10:15:09;4.00;89.60
76444;DHT22;65282;51.362;10.082;2022-12-08T10:17:45;4.00;89.70
76444;DHT22;65282;51.362;10.082;2022-12-08T10:20:15;4.10;89.50
76444;DHT22;65282;51.362;10.082;2022-12-08T10:22:43;4.10;88.50
76444;DHT22;65282;51.362;10.082;2022-12-08T10:25:17;4.10;88.30
76444;DHT22;65282;51.362;10.082;2022-12-08T10:27:48;4.10;89.00
76444;DHT22;65282;51.362;10.082;2022-12-08T10:30:18;4.20;88.80
76444;DHT22;65282;51.362;10.082;2022-12-08T10:32:47;4.20;89.20
76444;DHT22;65282;51.362;10.082;2022-12-08T10:35:16;4.30;87.70
76444;DHT22;65282;51.362;10.082;2022-12-08T10:37:54;4.40;87.20
76444;DHT22;65282;51.362;10.082;2022-12-08T10:40:26;4.40;87.10
76444;DHT22;65282;51.362;10.082;2022-12-08T10:42:56;4.40;86.70
76444;DHT22;65282;51.362;10.082;2022-12-08T10:45:25;4.50;87.20
76444;DHT22;65282;51.362;10.082;2022-12-08T10:47:59;4.50;87.00
76444;DHT22;65282;51.362;10.082;2022-12-08T10:50:31;4.50;86.40
76444;DHT22;65282;51.362;10.082;2022-12-08T10:53:00;4.50;84.80
76444;DHT22;65282;51.362;10.082;2022-12-08T10:55:39;4.50;85.70
76444;DHT22;65282;51.362;10.082;2022-12-08T10:58:25;4.50;85.80
76444;DHT22;65282;51.362;10.082;2022-12-08T11:00:54;4.50;85.30
76444;DHT22;65282;51.362;10.082;2022-12-08T11:03:25;4.50;85.40
76444;DHT22;65282;51.362;10.082;2022-12-08T11:05:55;4.60;85.70
76444;DHT22;65282;51.362;10.082;2022-12-08T11:08:23;4.60;85.60
76444;DHT22;65282;51.362;10.082;2022-12-08T11:10:51;4.70;84.90
76444;DHT22;65282;51.362;10.082;2022-12-08T11:13:21;4.70;86.30
76444;DHT22;65282;51.362;10.082;2022-12-08T11:15:48;4.70;84.70
76444;DHT22;65282;51.362;10.082;2022-12-08T11:18:22;4.80;85.40
76444;DHT22;65282;51.362;10.082;2022-12-08T11:20:56;4.70;85.20
76444;DHT22;65282;51.362;10.082;2022-12-08T11:23:25;4.70;85.60
76444;DHT22;65282;51.362;10.082;2022-12-08T11:25:56;4.70;85.40
76444;DHT22;65282;51.362;10.082;2022-12-08T11:28:25;4.70;84.70
76444;DHT22;65282;51.362;10.082;2022-12-08T11:30:57;4.70;84.70
76444;DHT22;65282;51.362;10.082;2022-12-08T11:33:27;4.70;85.80
76444;DHT22;65282;51.362;10.082;2022-12-08T11:35:58;4.70;85.00
76444;DHT22;65282;51.362;10.082;2022-12-08T11:38:27;6.70;86.10
76444;DHT22;65282;51.362;10.082;2022-12-08T11:40:59;4.70;84.70
76444;DHT22;65282;51.362;10.082;2022-12-08T11:43:35;4.80;85.40
76444;DHT22;65282;51.362;10.082;2022-12-08T11:46:22;4.80;84.60
76444;DHT22;65282;51.362;10.082;2022-12-08T11:48:51;4.70;84.80
76444;DHT22;65282;51.362;10.082;2022-12-08T11:51:26;4.80;84.80
76444;DHT22;65282;51.362;10.082;2022-12-08T11:54:04;4.80;85.40
76444;DHT22;65282;51.362;10.082;2022-12-08T11:56:37;5.70;85.00
76444;DHT22;65282;51.362;10.082;2022-12-08T11:59:09;4.80;84.30
76444;DHT22;65282;51.362;10.082;2022-12-08T12:01:39;4.80;84.40
76444;DHT22;65282;51.362;10.082;2022-12-08T12:04:15;5.80;86.00
76444;DHT22;65282;51.362;10.082;2022-12-08T12:10:04;4.80;84.90
76444;DHT22;65282;51.362;10.082;2022-12-08T12:12:45;4.80;84.80
76444;DHT22;65282;51.362;10.082;2022-12-08T12:18:20;4.80;84.50
76444;DHT22;65282;51.362;10.082;2022-12-08T12:20:52;4.80;84.00
76444;DHT22;65282;51.362;10.082;2022-12-08T12:23:23;5.40;85.00
76444;DHT22;65282;51.362;10.082;2022-12-08T12:25:54;4.60;85.30
76444;DHT22;65282;51.362;10.082;2022-12-08T12:28:24;4.60;84.70
76444;DHT22;65282;51.362;10.082;2022-12-08T12:30:57;5.90;86.40
76444;DHT22;65282;51.362;10.082;2022-12-08T12:33:28;4.60;86.80
76444;DHT22;65282;51.362;10.082;2022-12-08T12:35:57;4.50;86.00
76444;DHT22;65282;51.362;10.082;2022-12-08T12:38:31;4.40;88.10
76444;DHT22;65282;51.362;10.082;2022-12-08T12:41:00;4.30;87.50
76444;DHT22;65282;51.362;10.082;2022-12-08T12:43:32;4.00;88.70
76444;DHT22;65282;51.362;10.082;2022-12-08T12:46:38;3.70;90.20
76444;DHT22;65282;51.362;10.082;2022-12-08T12:52:40;3.30;92.10
76444;DHT22;65282;51.362;10.082;2022-12-08T12:58:39;3.10;92.40
76444;DHT22;65282;51.362;10.082;2022-12-08T13:01:43;3.10;92.60
76444;DHT22;65282;51.362;10.082;2022-12-08T13:04:13;3.10;92.30
76444;DHT22;65282;51.362;10.082;2022-12-08T13:06:43;3.20;92.60
76444;DHT22;65282;51.362;10.082;2022-12-08T13:09:24;3.20;92.40
76444;DHT22;65282;51.362;10.082;2022-12-08T13:11:55;3.30;92.40
76444;DHT22;65282;51.362;10.082;2022-12-08T13:14:32;3.30;92.50
76444;DHT22;65282;51.362;10.082;2022-12-08T13:17:00;3.40;92.60
76444;DHT22;65282;51.362;10.082;2022-12-08T13:19:31;3.40;92.20
76444;DHT22;65282;51.362;10.082;2022-12-08T13:21:59;3.40;92.30
76444;DHT22;65282;51.362;10.082;2022-12-08T13:24:32;4.40;92.30
76444;DHT22;65282;51.362;10.082;2022-12-08T13:27:31;3.50;92.00
76444;DHT22;65282;51.362;10.082;2022-12-08T13:30:39;3.60;92.10
76444;DHT22;65282;51.362;10.082;2022-12-08T13:33:10;3.60;92.20
76444;DHT22;65282;51.362;10.082;2022-12-08T13:35:51;3.50;92.20
76444;DHT22;65282;51.362;10.082;2022-12-08T13:38:21;3.40;95.20
76444;DHT22;65282;51.362;10.082;2022-12-08T13:40:53;3.30;91.30
76444;DHT22;65282;51.362;10.082;2022-12-08T13:43:28;2.70;91.50
76444;DHT22;65282;51.362;10.082;2022-12-08T13:46:16;2.40;92.30
76444;DHT22;65282;51.362;10.082;2022-12-08T13:49:14;2.20;92.80
76444;DHT22;65282;51.362;10.082;2022-12-08T13:52:03;1.80;93.10
76444;DHT22;65282;51.362;10.082;2022-12-08T13:54:50;1.70;93.60
76444;DHT22;65282;51.362;10.082;2022-12-08T13:57:38;1.60;94.10
76444;DHT22;65282;51.362;10.082;2022-12-08T14:00:11;1.50;94.50
76444;DHT22;65282;51.362;10.082;2022-12-08T14:02:42;1.60;94.60
76444;DHT22;65282;51.362;10.082;2022-12-08T14:05:15;1.60;94.70
76444;DHT22;65282;51.362;10.082;2022-12-08T14:07:52;1.70;94.70
76444;DHT22;65282;51.362;10.082;2022-12-08T14:10:22;1.70;94.50
76444;DHT22;65282;51.362;10.082;2022-12-08T14:12:54;1.80;94.30
76444;DHT22;65282;51.362;10.082;2022-12-08T14:15:21;1.80;94.30
76444;DHT22;65282;51.362;10.082;2022-12-08T14:17:54;1.80;94.40
76444;DHT22;65282;51.362;10.082;2022-12-08T14:20:23;1.90;94.60
76444;DHT22;65282;51.362;10.082;2022-12-08T14:22:51;1.90;94.50
76444;DHT22;65282;51.362;10.082;2022-12-08T14:25:19;2.00;94.50
76444;DHT22;65282;51.362;10.082;2022-12-08T14:27:47;2.00;94.20
76444;DHT22;65282;51.362;10.082;2022-12-08T14:30:18;2.00;94.10
76444;DHT22;65282;51.362;10.082;2022-12-08T14:32:47;2.00;94.10
76444;DHT22;65282;51.362;10.082;2022-12-08T14:35:22;2.00;94.30
76444;DHT22;65282;51.362;10.082;2022-12-08T14:37:52;2.00;94.10
76444;DHT22;65282;51.362;10.082;2022-12-08T14:40:22;2.00;94.10
76444;DHT22;65282;51.362;10.082;2022-12-08T14:42:51;2.00;94.10
76444;DHT22;65282;51.362;10.082;2022-12-08T14:45:19;2.00;94.10
76444;DHT22;65282;51.362;10.082;2022-12-08T14:47:46;2.30;94.20
76444;DHT22;65282;51.362;10.082;2022-12-08T14:50:37;2.00;94.20
76444;DHT22;65282;51.362;10.082;2022-12-08T14:53:10;2.00;94.30
76444;DHT22;65282;51.362;10.082;2022-12-08T14:55:38;2.00;94.20
76444;DHT22;65282;51.362;10.082;2022-12-08T14:58:05;2.00;94.30
76444;DHT22;65282;51.362;10.082;2022-12-08T15:00:32;2.00;94.40
76444;DHT22;65282;51.362;10.082;2022-12-08T15:03:05;2.00;94.50
76444;DHT22;65282;51.362;10.082;2022-12-08T15:05:33;2.00;94.50
76444;DHT22;65282;51.362;10.082;2022-12-08T15:08:02;2.00;94.60
76444;DHT22;65282;51.362;10.082;2022-12-08T15:10:31;2.00;94.60
76444;DHT22;65282;51.362;10.082;2022-12-08T15:13:01;2.00;94.50
76444;DHT22;65282;51.362;10.082;2022-12-08T15:15:29;1.90;94.50
76444;DHT22;65282;51.362;10.082;2022-12-08T15:18:01;1.90;94.50
76444;DHT22;65282;51.362;10.082;2022-12-08T15:20:35;2.00;94.40
76444;DHT22;65282;51.362;10.082;2022-12-08T15:25:56;2.00;94.50
76444;DHT22;65282;51.362;10.082;2022-12-08T15:28:24;2.00;94.50
76444;DHT22;65282;51.362;10.082;2022-12-08T15:30:56;3.80;95.00
76444;DHT22;65282;51.362;10.082;2022-12-08T15:33:23;3.50;94.70
76444;DHT22;65282;51.362;10.082;2022-12-08T15:35:50;1.90;94.50
76444;DHT22;65282;51.362;10.082;2022-12-08T15:38:21;1.90;94.50
76444;DHT22;65282;51.362;10.082;2022-12-08T15:40:49;1.90;94.40
76444;DHT22;65282;51.362;10.082;2022-12-08T15:43:16;1.90;94.30
76444;DHT22;65282;51.362;10.082;2022-12-08T15:45:43;1.90;94.40
76444;DHT22;65282;51.362;10.082;2022-12-08T15:48:25;1.80;94.40
76444;DHT22;65282;51.362;10.082;2022-12-08T15:50:53;1.80;94.30
76444;DHT22;65282;51.362;10.082;2022-12-08T15:53:21;1.70;93.90
76444;DHT22;65282;51.362;10.082;2022-12-08T15:55:48;1.50;94.10
76444;DHT22;65282;51.362;10.082;2022-12-08T15:58:35;1.50;94.40
76444;DHT22;65282;51.362;10.082;2022-12-08T16:01:21;1.50;94.40
76444;DHT22;65282;51.362;10.082;2022-12-08T16:03:49;1.50;94.30
76444;DHT22;65282;51.362;10.082;2022-12-08T16:06:36;1.50;94.40
76444;DHT22;65282;51.362;10.082;2022-12-08T16:09:29;1.40;94.50
76444;DHT22;65282;51.362;10.082;2022-12-08T16:11:57;1.40;94.60